sensor_id;sensor_type;location;lat;lon;timestamp;temperature;humidity
51579;DHT22;47998;53.242;6.386;2023-04-03T00:00:33;0.60;1.00
51579;DHT22;47998;53.242;6.386;2023-04-03T00:02:59;0.60;22.60
51579;DHT22;47998;53.242;6.386;2023-04-03T00:05:25;0.60;12.00
51579;DHT22;47998;53.242;6.386;2023-04-03T00:07:51;0.60;18.00
51579;DHT22;47998;53.242;6.386;2023-04-03T00:10:17;0.70;1.00
51579;DHT22;47998;53.242;6.386;2023-04-03T00:12:43;0.60;1.00
51579;DHT22;47998;53.242;6.386;2023-04-03T00:15:09;0.60;1.00
51579;DHT22;47998;53.242;6.386;2023-04-03T00:17:35;0.60;1.00
51579;DHT22;47998;53.242;6.386;2023-04-03T00:20:01;0.50;1.00
51579;DHT22;47998;53.242;6.386;2023-04-03T00:22:27;0.60;1.00
51579;DHT22;47998;53.242;6.386;2023-04-03T00:24:54;0.60;1.00
51579;DHT22;47998;53.242;6.386;2023-04-03T00:27:20;0.60;1.00
51579;DHT22;47998;53.242;6.386;2023-04-03T00:29:46;0.50;1.00
51579;DHT22;47998;53.242;6.386;2023-04-03T00:32:12;0.40;1.00
51579;DHT22;47998;53.242;6.386;2023-04-03T00:34:38;0.40;1.00
51579;DHT22;47998;53.242;6.386;2023-04-03T00:37:04;0.30;1.00
51579;DHT22;47998;53.242;6.386;2023-04-03T00:39:30;0.40;1.00
51579;DHT22;47998;53.242;6.386;2023-04-03T00:41:56;0.40;1.00
51579;DHT22;47998;53.242;6.386;2023-04-03T00:47:13;0.30;1.00
51579;DHT22;47998;53.242;6.386;2023-04-03T00:49:42;0.30;1.00
51579;DHT22;47998;53.242;6.386;2023-04-03T00:52:14;0.30;1.00
51579;DHT22;47998;53.242;6.386;2023-04-03T00:54:41;0.20;1.00
51579;DHT22;47998;53.242;6.386;2023-04-03T00:57:08;0.20;1.00
51579;DHT22;47998;53.242;6.386;2023-04-03T00:59:40;0.30;1.00
51579;DHT22;47998;53.242;6.386;2023-04-03T01:02:09;0.10;1.00
51579;DHT22;47998;53.242;6.386;2023-04-03T01:04:38;0.10;1.00
51579;DHT22;47998;53.242;6.386;2023-04-03T01:07:08;0.10;1.00
51579;DHT22;47998;53.242;6.386;2023-04-03T01:09:35;0.00;1.00
51579;DHT22;47998;53.242;6.386;2023-04-03T01:12:20;-0.10;1.00
51579;DHT22;47998;53.242;6.386;2023-04-03T01:14:50;-0.10;1.00
51579;DHT22;47998;53.242;6.386;2023-04-03T01:17:44;-0.20;27.20
51579;DHT22;47998;53.242;6.386;2023-04-03T01:25:48;-0.20;99.90
51579;DHT22;47998;53.242;6.386;2023-04-03T01:28:21;-0.20;99.90
51579;DHT22;47998;53.242;6.386;2023-04-03T01:30:53;-0.10;45.10
51579;DHT22;47998;53.242;6.386;2023-04-03T01:33:22;-0.10;4.20
51579;DHT22;47998;53.242;6.386;2023-04-03T01:35:47;-0.10;19.00
51579;DHT22;47998;53.242;6.386;2023-04-03T01:38:13;-0.10;1.00
51579;DHT22;47998;53.242;6.386;2023-04-03T01:40:39;-0.10;5.70
51579;DHT22;47998;53.242;6.386;2023-04-03T01:43:05;-0.10;1.00
51579;DHT22;47998;53.242;6.386;2023-04-03T01:45:31;0.00;1.00
51579;DHT22;47998;53.242;6.386;2023-04-03T01:47:56;-0.10;1.00
51579;DHT22;47998;53.242;6.386;2023-04-03T01:50:22;0.00;1.00
51579;DHT22;47998;53.242;6.386;2023-04-03T01:52:48;-0.10;1.00
51579;DHT22;47998;53.242;6.386;2023-04-03T01:55:14;-0.10;1.00
51579;DHT22;47998;53.242;6.386;2023-04-03T01:57:40;-0.10;1.00
51579;DHT22;47998;53.242;6.386;2023-04-03T02:00:06;-0.10;1.00
51579;DHT22;47998;53.242;6.386;2023-04-03T02:02:33;-0.10;1.00
51579;DHT22;47998;53.242;6.386;2023-04-03T02:04:59;-0.10;1.00
51579;DHT22;47998;53.242;6.386;2023-04-03T02:07:25;-0.20;1.00
51579;DHT22;47998;53.242;6.386;2023-04-03T02:09:50;-0.20;1.00
51579;DHT22;47998;53.242;6.386;2023-04-03T02:12:16;-0.20;1.00
51579;DHT22;47998;53.242;6.386;2023-04-03T02:14:42;-0.30;1.00
51579;DHT22;47998;53.242;6.386;2023-04-03T02:17:08;-0.30;1.00
51579;DHT22;47998;53.242;6.386;2023-04-03T02:19:34;-0.40;1.00
51579;DHT22;47998;53.242;6.386;2023-04-03T02:22:02;-0.40;67.80
51579;DHT22;47998;53.242;6.386;2023-04-03T02:24:28;-0.40;3.40
51579;DHT22;47998;53.242;6.386;2023-04-03T02:26:54;-0.40;1.00
51579;DHT22;47998;53.242;6.386;2023-04-03T02:29:20;-0.50;1.00
51579;DHT22;47998;53.242;6.386;2023-04-03T02:31:46;-0.50;1.00
51579;DHT22;47998;53.242;6.386;2023-04-03T02:34:12;-0.60;9.00
51579;DHT22;47998;53.242;6.386;2023-04-03T02:36:37;-0.60;18.00
51579;DHT22;47998;53.242;6.386;2023-04-03T02:39:03;-0.60;99.90
51579;DHT22;47998;53.242;6.386;2023-04-03T02:41:29;-0.70;99.90
51579;DHT22;47998;53.242;6.386;2023-04-03T02:44:03;-0.70;99.90
51579;DHT22;47998;53.242;6.386;2023-04-03T02:46:30;-0.70;98.50
51579;DHT22;47998;53.242;6.386;2023-04-03T02:48:56;-0.80;87.30
51579;DHT22;47998;53.242;6.386;2023-04-03T02:51:22;-0.80;90.90
51579;DHT22;47998;53.242;6.386;2023-04-03T02:53:51;-0.80;99.90
51579;DHT22;47998;53.242;6.386;2023-04-03T02:56:17;-0.80;99.90
51579;DHT22;47998;53.242;6.386;2023-04-03T02:58:44;-0.90;99.90
51579;DHT22;47998;53.242;6.386;2023-04-03T03:01:11;-0.90;99.90
51579;DHT22;47998;53.242;6.386;2023-04-03T03:03:37;-0.80;99.90
51579;DHT22;47998;53.242;6.386;2023-04-03T03:06:04;-0.90;99.90
51579;DHT22;47998;53.242;6.386;2023-04-03T03:08:31;-0.90;99.90
51579;DHT22;47998;53.242;6.386;2023-04-03T03:10:57;-0.90;99.90
51579;DHT22;47998;53.242;6.386;2023-04-03T03:13:23;-0.90;99.90
51579;DHT22;47998;53.242;6.386;2023-04-03T03:15:49;-1.00;99.90
51579;DHT22;47998;53.242;6.386;2023-04-03T03:18:15;-1.00;99.90
51579;DHT22;47998;53.242;6.386;2023-04-03T03:20:41;-1.00;99.90
51579;DHT22;47998;53.242;6.386;2023-04-03T03:23:06;-0.90;99.90
51579;DHT22;47998;53.242;6.386;2023-04-03T03:25:32;-1.00;99.90
51579;DHT22;47998;53.242;6.386;2023-04-03T03:27:58;-1.00;99.90
51579;DHT22;47998;53.242;6.386;2023-04-03T03:30:24;-1.00;99.90
51579;DHT22;47998;53.242;6.386;2023-04-03T03:32:49;-1.10;99.90
51579;DHT22;47998;53.242;6.386;2023-04-03T03:35:15;-1.10;99.90
51579;DHT22;47998;53.242;6.386;2023-04-03T03:37:41;-1.10;99.90
51579;DHT22;47998;53.242;6.386;2023-04-03T03:40:07;-1.10;99.90
51579;DHT22;47998;53.242;6.386;2023-04-03T03:42:33;-1.20;99.90
51579;DHT22;47998;53.242;6.386;2023-04-03T03:44:59;-1.10;99.90
51579;DHT22;47998;53.242;6.386;2023-04-03T03:47:25;-1.20;99.90
51579;DHT22;47998;53.242;6.386;2023-04-03T03:49:51;-1.20;1.00
51579;DHT22;47998;53.242;6.386;2023-04-03T03:52:17;-1.20;1.00
51579;DHT22;47998;53.242;6.386;2023-04-03T03:54:42;-1.30;1.00
51579;DHT22;47998;53.242;6.386;2023-04-03T03:57:08;-1.20;1.00
51579;DHT22;47998;53.242;6.386;2023-04-03T03:59:33;-1.30;1.00
51579;DHT22;47998;53.242;6.386;2023-04-03T04:01:59;-1.20;1.00
51579;DHT22;47998;53.242;6.386;2023-04-03T04:04:25;-1.20;1.00
51579;DHT22;47998;53.242;6.386;2023-04-03T04:06:51;-1.30;99.90
51579;DHT22;47998;53.242;6.386;2023-04-03T04:09:17;-1.20;1.00
51579;DHT22;47998;53.242;6.386;2023-04-03T04:11:44;-1.30;1.00
51579;DHT22;47998;53.242;6.386;2023-04-03T04:14:10;-1.30;1.00
51579;DHT22;47998;53.242;6.386;2023-04-03T04:16:38;-1.30;1.00
51579;DHT22;47998;53.242;6.386;2023-04-03T04:19:03;-1.20;1.00
51579;DHT22;47998;53.242;6.386;2023-04-03T04:21:29;-1.20;1.00
51579;DHT22;47998;53.242;6.386;2023-04-03T04:23:55;-1.20;1.00
51579;DHT22;47998;53.242;6.386;2023-04-03T04:26:21;-1.20;1.00
51579;DHT22;47998;53.242;6.386;2023-04-03T04:28:46;-1.30;1.00
51579;DHT22;47998;53.242;6.386;2023-04-03T04:31:12;-1.30;1.00
51579;DHT22;47998;53.242;6.386;2023-04-03T04:33:38;-1.30;1.00
51579;DHT22;47998;53.242;6.386;2023-04-03T04:36:04;-1.30;1.00
51579;DHT22;47998;53.242;6.386;2023-04-03T04:38:30;-1.40;1.00
51579;DHT22;47998;53.242;6.386;2023-04-03T04:40:56;-1.40;1.00
51579;DHT22;47998;53.242;6.386;2023-04-03T04:43:21;-1.40;1.00
51579;DHT22;47998;53.242;6.386;2023-04-03T04:45:47;-1.50;1.00
51579;DHT22;47998;53.242;6.386;2023-04-03T04:48:13;-1.10;1.00
51579;DHT22;47998;53.242;6.386;2023-04-03T04:50:39;-1.60;1.00
51579;DHT22;47998;53.242;6.386;2023-04-03T04:53:05;-1.60;1.00
51579;DHT22;47998;53.242;6.386;2023-04-03T04:55:31;-1.60;1.00
51579;DHT22;47998;53.242;6.386;2023-04-03T04:57:57;-1.60;1.00
51579;DHT22;47998;53.242;6.386;2023-04-03T05:00:23;-1.60;1.00
51579;DHT22;47998;53.242;6.386;2023-04-03T05:02:48;-1.60;10.50
51579;DHT22;47998;53.242;6.386;2023-04-03T05:05:17;-1.50;2.40
51579;DHT22;47998;53.242;6.386;2023-04-03T05:07:43;-1.50;1.00
51579;DHT22;47998;53.242;6.386;2023-04-03T05:10:09;-1.50;1.00
51579;DHT22;47998;53.242;6.386;2023-04-03T05:12:35;-1.50;1.00
51579;DHT22;47998;53.242;6.386;2023-04-03T05:15:01;-1.40;1.00
51579;DHT22;47998;53.242;6.386;2023-04-03T05:17:27;-1.40;1.00
51579;DHT22;47998;53.242;6.386;2023-04-03T05:19:52;-1.40;1.00
51579;DHT22;47998;53.242;6.386;2023-04-03T05:22:18;-1.40;1.00
51579;DHT22;47998;53.242;6.386;2023-04-03T05:24:44;-1.40;1.00
51579;DHT22;47998;53.242;6.386;2023-04-03T05:27:10;-1.40;1.00
51579;DHT22;47998;53.242;6.386;2023-04-03T05:29:36;-1.40;1.00
51579;DHT22;47998;53.242;6.386;2023-04-03T05:32:02;-0.90;1.00
51579;DHT22;47998;53.242;6.386;2023-04-03T05:34:28;-1.30;1.00
51579;DHT22;47998;53.242;6.386;2023-04-03T05:36:54;-1.30;1.00
51579;DHT22;47998;53.242;6.386;2023-04-03T05:39:19;-1.30;1.00
51579;DHT22;47998;53.242;6.386;2023-04-03T05:41:45;-1.30;1.00
51579;DHT22;47998;53.242;6.386;2023-04-03T05:44:11;-1.20;1.00
51579;DHT22;47998;53.242;6.386;2023-04-03T05:46:37;-1.20;1.00
51579;DHT22;47998;53.242;6.386;2023-04-03T05:49:03;-1.20;1.00
51579;DHT22;47998;53.242;6.386;2023-04-03T05:51:32;-1.20;1.00
51579;DHT22;47998;53.242;6.386;2023-04-03T05:54:06;-1.10;1.00
51579;DHT22;47998;53.242;6.386;2023-04-03T05:56:33;-1.10;1.00
51579;DHT22;47998;53.242;6.386;2023-04-03T05:58:59;-1.10;1.00
51579;DHT22;47998;53.242;6.386;2023-04-03T06:01:25;-1.00;1.00
51579;DHT22;47998;53.242;6.386;2023-04-03T06:03:52;-1.00;1.00
51579;DHT22;47998;53.242;6.386;2023-04-03T06:06:17;-1.00;1.00
51579;DHT22;47998;53.242;6.386;2023-04-03T06:08:43;-0.90;1.00
51579;DHT22;47998;53.242;6.386;2023-04-03T06:11:15;-0.90;1.00
51579;DHT22;47998;53.242;6.386;2023-04-03T06:13:41;-0.80;1.00
51579;DHT22;47998;53.242;6.386;2023-04-03T06:16:11;-0.70;1.00
51579;DHT22;47998;53.242;6.386;2023-04-03T06:18:39;-0.60;1.00
51579;DHT22;47998;53.242;6.386;2023-04-03T06:21:06;-0.60;1.00
51579;DHT22;47998;53.242;6.386;2023-04-03T06:23:33;-0.50;1.00
51579;DHT22;47998;53.242;6.386;2023-04-03T06:25:59;-0.40;1.00
51579;DHT22;47998;53.242;6.386;2023-04-03T06:28:26;-0.40;1.00
51579;DHT22;47998;53.242;6.386;2023-04-03T06:30:51;-0.30;1.00
51579;DHT22;47998;53.242;6.386;2023-04-03T06:33:17;-0.20;1.00
51579;DHT22;47998;53.242;6.386;2023-04-03T06:35:43;-0.20;1.00
51579;DHT22;47998;53.242;6.386;2023-04-03T06:38:09;0.20;1.00
51579;DHT22;47998;53.242;6.386;2023-04-03T06:40:35;0.00;1.00
51579;DHT22;47998;53.242;6.386;2023-04-03T06:43:01;0.10;1.00
51579;DHT22;47998;53.242;6.386;2023-04-03T06:45:27;0.10;1.00
51579;DHT22;47998;53.242;6.386;2023-04-03T06:47:53;0.20;1.00
51579;DHT22;47998;53.242;6.386;2023-04-03T06:50:19;0.20;99.90
51579;DHT22;47998;53.242;6.386;2023-04-03T06:52:45;0.30;99.90
51579;DHT22;47998;53.242;6.386;2023-04-03T06:55:11;0.40;99.90
51579;DHT22;47998;53.242;6.386;2023-04-03T06:57:37;0.50;99.90
51579;DHT22;47998;53.242;6.386;2023-04-03T07:00:05;0.50;99.90
51579;DHT22;47998;53.242;6.386;2023-04-03T07:02:31;0.60;99.90
51579;DHT22;47998;53.242;6.386;2023-04-03T07:04:57;0.70;99.90
51579;DHT22;47998;53.242;6.386;2023-04-03T07:07:23;0.80;99.90
51579;DHT22;47998;53.242;6.386;2023-04-03T07:09:48;0.90;99.90
51579;DHT22;47998;53.242;6.386;2023-04-03T07:12:15;1.30;99.90
51579;DHT22;47998;53.242;6.386;2023-04-03T07:14:41;1.20;99.90
51579;DHT22;47998;53.242;6.386;2023-04-03T07:17:08;1.10;99.90
51579;DHT22;47998;53.242;6.386;2023-04-03T07:19:33;1.30;99.90
51579;DHT22;47998;53.242;6.386;2023-04-03T07:22:00;1.40;99.90
51579;DHT22;47998;53.242;6.386;2023-04-03T07:24:25;1.60;99.90
51579;DHT22;47998;53.242;6.386;2023-04-03T07:26:54;1.70;99.90
51579;DHT22;47998;53.242;6.386;2023-04-03T07:29:20;1.80;57.50
51579;DHT22;47998;53.242;6.386;2023-04-03T07:31:47;1.90;66.20
51579;DHT22;47998;53.242;6.386;2023-04-03T07:34:13;2.10;84.20
51579;DHT22;47998;53.242;6.386;2023-04-03T07:36:39;2.10;1.00
51579;DHT22;47998;53.242;6.386;2023-04-03T07:39:05;2.30;1.00
51579;DHT22;47998;53.242;6.386;2023-04-03T07:41:32;2.40;1.00
51579;DHT22;47998;53.242;6.386;2023-04-03T07:43:58;2.60;99.90
51579;DHT22;47998;53.242;6.386;2023-04-03T07:46:24;2.70;1.00
51579;DHT22;47998;53.242;6.386;2023-04-03T07:48:49;2.80;1.00
51579;DHT22;47998;53.242;6.386;2023-04-03T07:51:15;2.90;99.90
51579;DHT22;47998;53.242;6.386;2023-04-03T07:53:41;2.90;99.90
51579;DHT22;47998;53.242;6.386;2023-04-03T07:56:08;3.10;99.90
51579;DHT22;47998;53.242;6.386;2023-04-03T07:58:34;3.10;99.90
51579;DHT22;47998;53.242;6.386;2023-04-03T08:01:00;3.20;99.90
51579;DHT22;47998;53.242;6.386;2023-04-03T08:03:26;3.30;99.90
51579;DHT22;47998;53.242;6.386;2023-04-03T08:05:51;3.30;1.00
51579;DHT22;47998;53.242;6.386;2023-04-03T08:08:21;3.40;99.90
51579;DHT22;47998;53.242;6.386;2023-04-03T08:10:52;3.40;99.90
51579;DHT22;47998;53.242;6.386;2023-04-03T08:13:19;3.50;1.00
51579;DHT22;47998;53.242;6.386;2023-04-03T08:15:46;3.60;1.00
51579;DHT22;47998;53.242;6.386;2023-04-03T08:18:13;3.70;99.90
51579;DHT22;47998;53.242;6.386;2023-04-03T08:20:40;3.80;38.00
51579;DHT22;47998;53.242;6.386;2023-04-03T08:23:06;3.90;99.90
51579;DHT22;47998;53.242;6.386;2023-04-03T08:25:37;4.00;1.00
51579;DHT22;47998;53.242;6.386;2023-04-03T08:28:03;4.10;99.90
51579;DHT22;47998;53.242;6.386;2023-04-03T08:30:29;4.20;99.90
51579;DHT22;47998;53.242;6.386;2023-04-03T08:32:55;4.30;1.00
51579;DHT22;47998;53.242;6.386;2023-04-03T08:35:21;4.40;29.80
51579;DHT22;47998;53.242;6.386;2023-04-03T08:37:46;4.50;1.00
51579;DHT22;47998;53.242;6.386;2023-04-03T08:40:15;4.60;1.00
51579;DHT22;47998;53.242;6.386;2023-04-03T08:45:45;4.80;1.00
51579;DHT22;47998;53.242;6.386;2023-04-03T08:51:00;5.00;1.00
51579;DHT22;47998;53.242;6.386;2023-04-03T08:53:33;5.00;99.90
51579;DHT22;47998;53.242;6.386;2023-04-03T08:56:07;5.10;1.00
51579;DHT22;47998;53.242;6.386;2023-04-03T08:58:47;5.30;1.00
51579;DHT22;47998;53.242;6.386;2023-04-03T09:01:37;5.30;1.00
51579;DHT22;47998;53.242;6.386;2023-04-03T09:04:10;5.40;5.80
51579;DHT22;47998;53.242;6.386;2023-04-03T09:06:38;5.60;99.90
51579;DHT22;47998;53.242;6.386;2023-04-03T09:09:30;5.70;99.90
51579;DHT22;47998;53.242;6.386;2023-04-03T09:14:54;7.00;99.90
51579;DHT22;47998;53.242;6.386;2023-04-03T09:22:44;10.70;39.20
51579;DHT22;47998;53.242;6.386;2023-04-03T09:25:17;10.90;99.90
51579;DHT22;47998;53.242;6.386;2023-04-03T09:27:44;11.60;1.00
51579;DHT22;47998;53.242;6.386;2023-04-03T09:30:19;12.10;10.60
51579;DHT22;47998;53.242;6.386;2023-04-03T09:32:48;12.00;1.00
51579;DHT22;47998;53.242;6.386;2023-04-03T09:35:34;12.10;1.00
51579;DHT22;47998;53.242;6.386;2023-04-03T09:40:37;12.40;99.90
51579;DHT22;47998;53.242;6.386;2023-04-03T09:43:22;12.80;1.00
51579;DHT22;47998;53.242;6.386;2023-04-03T09:45:49;13.20;99.90
51579;DHT22;47998;53.242;6.386;2023-04-03T09:48:25;13.30;1.00
51579;DHT22;47998;53.242;6.386;2023-04-03T09:50:58;13.60;99.90
51579;DHT22;47998;53.242;6.386;2023-04-03T09:53:42;13.40;99.90
51579;DHT22;47998;53.242;6.386;2023-04-03T09:58:45;13.80;99.90
51579;DHT22;47998;53.242;6.386;2023-04-03T10:01:32;13.70;99.90
51579;DHT22;47998;53.242;6.386;2023-04-03T10:04:06;13.80;99.90
51579;DHT22;47998;53.242;6.386;2023-04-03T10:06:43;13.60;99.90
51579;DHT22;47998;53.242;6.386;2023-04-03T10:09:27;13.70;99.90
51579;DHT22;47998;53.242;6.386;2023-04-03T10:17:31;14.30;99.90
51579;DHT22;47998;53.242;6.386;2023-04-03T10:20:25;14.30;99.90
51579;DHT22;47998;53.242;6.386;2023-04-03T10:23:36;14.00;99.90
51579;DHT22;47998;53.242;6.386;2023-04-03T10:26:17;14.30;99.90
51579;DHT22;47998;53.242;6.386;2023-04-03T10:36:42;14.80;99.90
51579;DHT22;47998;53.242;6.386;2023-04-03T10:42:00;14.70;99.90
51579;DHT22;47998;53.242;6.386;2023-04-03T10:47:04;14.60;99.90
51579;DHT22;47998;53.242;6.386;2023-04-03T10:49:37;14.50;99.90
51579;DHT22;47998;53.242;6.386;2023-04-03T10:52:42;14.70;99.90
51579;DHT22;47998;53.242;6.386;2023-04-03T10:57:40;15.00;99.90
51579;DHT22;47998;53.242;6.386;2023-04-03T11:00:15;14.80;99.90
51579;DHT22;47998;53.242;6.386;2023-04-03T11:02:52;14.90;99.90
51579;DHT22;47998;53.242;6.386;2023-04-03T11:05:46;15.00;99.90
51579;DHT22;47998;53.242;6.386;2023-04-03T11:10:55;15.30;99.90
51579;DHT22;47998;53.242;6.386;2023-04-03T11:13:34;15.20;99.90
51579;DHT22;47998;53.242;6.386;2023-04-03T11:16:02;15.30;99.90
51579;DHT22;47998;53.242;6.386;2023-04-03T11:18:38;15.40;99.90
51579;DHT22;47998;53.242;6.386;2023-04-03T11:21:19;15.40;99.90
51579;DHT22;47998;53.242;6.386;2023-04-03T11:23:47;15.50;99.90
51579;DHT22;47998;53.242;6.386;2023-04-03T11:26:18;15.30;99.90
51579;DHT22;47998;53.242;6.386;2023-04-03T11:28:46;15.30;99.90
51579;DHT22;47998;53.242;6.386;2023-04-03T11:34:40;15.00;99.90
51579;DHT22;47998;53.242;6.386;2023-04-03T11:39:53;14.90;99.90
51579;DHT22;47998;53.242;6.386;2023-04-03T11:42:36;15.30;99.90
51579;DHT22;47998;53.242;6.386;2023-04-03T11:53:26;15.20;99.90
51579;DHT22;47998;53.242;6.386;2023-04-03T11:58:32;14.90;99.90
51579;DHT22;47998;53.242;6.386;2023-04-03T12:01:00;15.30;99.90
51579;DHT22;47998;53.242;6.386;2023-04-03T12:13:41;16.00;99.90
51579;DHT22;47998;53.242;6.386;2023-04-03T12:16:23;15.90;99.90
51579;DHT22;47998;53.242;6.386;2023-04-03T12:29:29;15.60;99.90
51579;DHT22;47998;53.242;6.386;2023-04-03T12:32:34;15.80;99.90
51579;DHT22;47998;53.242;6.386;2023-04-03T12:35:17;16.00;99.90
51579;DHT22;47998;53.242;6.386;2023-04-03T12:48:30;14.70;99.90
51579;DHT22;47998;53.242;6.386;2023-04-03T12:50:58;14.60;99.90
51579;DHT22;47998;53.242;6.386;2023-04-03T12:53:33;14.50;99.90
51579;DHT22;47998;53.242;6.386;2023-04-03T12:56:26;13.60;99.90
51579;DHT22;47998;53.242;6.386;2023-04-03T12:58:54;13.70;99.90
51579;DHT22;47998;53.242;6.386;2023-04-03T13:01:24;14.00;99.90
51579;DHT22;47998;53.242;6.386;2023-04-03T13:03:55;14.00;99.90
51579;DHT22;47998;53.242;6.386;2023-04-03T13:06:28;13.80;99.90
51579;DHT22;47998;53.242;6.386;2023-04-03T13:09:01;13.40;99.90
51579;DHT22;47998;53.242;6.386;2023-04-03T13:11:32;13.50;99.90
51579;DHT22;47998;53.242;6.386;2023-04-03T13:14:02;13.40;99.90
51579;DHT22;47998;53.242;6.386;2023-04-03T13:16:29;13.60;99.90
51579;DHT22;47998;53.242;6.386;2023-04-03T13:18:55;13.70;99.90
51579;DHT22;47998;53.242;6.386;2023-04-03T13:21:28;13.80;99.90
51579;DHT22;47998;53.242;6.386;2023-04-03T13:23:58;14.00;99.90
51579;DHT22;47998;53.242;6.386;2023-04-03T13:26:31;13.80;99.90
51579;DHT22;47998;53.242;6.386;2023-04-03T13:29:04;13.50;99.90
51579;DHT22;47998;53.242;6.386;2023-04-03T13:31:33;13.40;99.90
51579;DHT22;47998;53.242;6.386;2023-04-03T13:36:41;14.10;99.90
51579;DHT22;47998;53.242;6.386;2023-04-03T13:41:43;14.00;99.90
51579;DHT22;47998;53.242;6.386;2023-04-03T13:46:56;13.60;99.90
51579;DHT22;47998;53.242;6.386;2023-04-03T13:49:33;13.80;99.90
51579;DHT22;47998;53.242;6.386;2023-04-03T13:52:00;13.80;99.90
51579;DHT22;47998;53.242;6.386;2023-04-03T13:54:38;13.90;99.90
51579;DHT22;47998;53.242;6.386;2023-04-03T13:57:13;13.80;99.90
51579;DHT22;47998;53.242;6.386;2023-04-03T13:59:39;13.80;99.90
51579;DHT22;47998;53.242;6.386;2023-04-03T14:07:03;12.70;99.90
51579;DHT22;47998;53.242;6.386;2023-04-03T14:09:29;12.00;99.90
51579;DHT22;47998;53.242;6.386;2023-04-03T14:11:59;11.70;99.90
51579;DHT22;47998;53.242;6.386;2023-04-03T14:16:59;11.50;99.90
51579;DHT22;47998;53.242;6.386;2023-04-03T14:19:35;11.40;99.90
51579;DHT22;47998;53.242;6.386;2023-04-03T14:22:15;10.90;99.90
51579;DHT22;47998;53.242;6.386;2023-04-03T14:24:42;11.10;99.90
51579;DHT22;47998;53.242;6.386;2023-04-03T14:27:20;11.10;99.90
51579;DHT22;47998;53.242;6.386;2023-04-03T14:29:47;10.80;99.90
51579;DHT22;47998;53.242;6.386;2023-04-03T14:32:14;10.30;99.90
51579;DHT22;47998;53.242;6.386;2023-04-03T14:34:40;10.40;99.90
51579;DHT22;47998;53.242;6.386;2023-04-03T14:37:11;10.50;99.90
51579;DHT22;47998;53.242;6.386;2023-04-03T14:39:37;10.40;99.90
51579;DHT22;47998;53.242;6.386;2023-04-03T14:42:03;10.50;99.90
51579;DHT22;47998;53.242;6.386;2023-04-03T14:44:29;10.80;99.90
51579;DHT22;47998;53.242;6.386;2023-04-03T14:46:55;11.20;99.90
51579;DHT22;47998;53.242;6.386;2023-04-03T14:49:27;11.20;99.90
51579;DHT22;47998;53.242;6.386;2023-04-03T14:51:58;10.80;99.90
51579;DHT22;47998;53.242;6.386;2023-04-03T14:54:24;10.90;99.90
51579;DHT22;47998;53.242;6.386;2023-04-03T14:56:53;11.20;99.90
51579;DHT22;47998;53.242;6.386;2023-04-03T14:59:21;11.40;99.90
51579;DHT22;47998;53.242;6.386;2023-04-03T15:01:47;11.20;99.90
51579;DHT22;47998;53.242;6.386;2023-04-03T15:04:18;11.20;99.90
51579;DHT22;47998;53.242;6.386;2023-04-03T15:06:45;11.20;99.90
51579;DHT22;47998;53.242;6.386;2023-04-03T15:09:22;10.70;99.90
51579;DHT22;47998;53.242;6.386;2023-04-03T15:11:49;10.30;99.90
51579;DHT22;47998;53.242;6.386;2023-04-03T15:14:16;9.90;99.90
51579;DHT22;47998;53.242;6.386;2023-04-03T15:19:08;10.00;99.90
51579;DHT22;47998;53.242;6.386;2023-04-03T15:21:34;10.50;99.90
51579;DHT22;47998;53.242;6.386;2023-04-03T15:24:00;10.70;99.90
51579;DHT22;47998;53.242;6.386;2023-04-03T15:26:26;10.80;99.90
51579;DHT22;47998;53.242;6.386;2023-04-03T15:28:51;11.00;99.90
51579;DHT22;47998;53.242;6.386;2023-04-03T15:31:17;11.20;99.90
51579;DHT22;47998;53.242;6.386;2023-04-03T15:33:43;11.20;99.90
51579;DHT22;47998;53.242;6.386;2023-04-03T15:36:09;10.80;99.90
51579;DHT22;47998;53.242;6.386;2023-04-03T15:38:35;10.60;99.90
51579;DHT22;47998;53.242;6.386;2023-04-03T15:41:02;10.50;99.90
51579;DHT22;47998;53.242;6.386;2023-04-03T15:43:28;10.30;99.90
51579;DHT22;47998;53.242;6.386;2023-04-03T15:45:57;10.30;99.90
51579;DHT22;47998;53.242;6.386;2023-04-03T15:48:24;10.30;99.90
51579;DHT22;47998;53.242;6.386;2023-04-03T15:50:50;10.10;99.90
51579;DHT22;47998;53.242;6.386;2023-04-03T15:53:16;10.20;99.90
51579;DHT22;47998;53.242;6.386;2023-04-03T15:55:42;10.30;99.90
51579;DHT22;47998;53.242;6.386;2023-04-03T15:58:08;10.10;99.90
51579;DHT22;47998;53.242;6.386;2023-04-03T16:00:35;10.20;99.90
51579;DHT22;47998;53.242;6.386;2023-04-03T16:03:06;10.10;99.90
51579;DHT22;47998;53.242;6.386;2023-04-03T16:05:35;10.00;99.90
51579;DHT22;47998;53.242;6.386;2023-04-03T16:08:01;10.00;99.90
51579;DHT22;47998;53.242;6.386;2023-04-03T16:10:27;10.10;99.90
51579;DHT22;47998;53.242;6.386;2023-04-03T16:12:53;9.90;99.90
51579;DHT22;47998;53.242;6.386;2023-04-03T16:15:19;9.70;99.90
51579;DHT22;47998;53.242;6.386;2023-04-03T16:17:48;9.40;99.90
51579;DHT22;47998;53.242;6.386;2023-04-03T16:20:14;9.70;99.90
51579;DHT22;47998;53.242;6.386;2023-04-03T16:22:40;9.80;99.90
51579;DHT22;47998;53.242;6.386;2023-04-03T16:25:07;9.70;99.90
51579;DHT22;47998;53.242;6.386;2023-04-03T16:27:33;9.70;99.90
51579;DHT22;47998;53.242;6.386;2023-04-03T16:29:59;9.90;99.90
51579;DHT22;47998;53.242;6.386;2023-04-03T16:32:28;9.90;99.90
51579;DHT22;47998;53.242;6.386;2023-04-03T16:34:54;9.80;99.90
51579;DHT22;47998;53.242;6.386;2023-04-03T16:37:20;9.70;99.90
51579;DHT22;47998;53.242;6.386;2023-04-03T16:39:46;9.60;99.90
51579;DHT22;47998;53.242;6.386;2023-04-03T16:42:12;9.50;99.90
51579;DHT22;47998;53.242;6.386;2023-04-03T16:44:38;9.60;99.90
51579;DHT22;47998;53.242;6.386;2023-04-03T16:47:05;9.40;99.90
51579;DHT22;47998;53.242;6.386;2023-04-03T16:49:31;9.30;99.90
51579;DHT22;47998;53.242;6.386;2023-04-03T16:52:04;9.20;99.90
51579;DHT22;47998;53.242;6.386;2023-04-03T16:54:31;9.10;99.90
51579;DHT22;47998;53.242;6.386;2023-04-03T16:56:57;8.70;99.90
51579;DHT22;47998;53.242;6.386;2023-04-03T16:59:23;8.60;99.90
51579;DHT22;47998;53.242;6.386;2023-04-03T17:01:48;8.70;99.90
51579;DHT22;47998;53.242;6.386;2023-04-03T17:04:14;8.60;99.90
51579;DHT22;47998;53.242;6.386;2023-04-03T17:06:40;8.40;99.90
51579;DHT22;47998;53.242;6.386;2023-04-03T17:09:06;8.20;99.90
51579;DHT22;47998;53.242;6.386;2023-04-03T17:11:32;8.10;99.90
51579;DHT22;47998;53.242;6.386;2023-04-03T17:13:58;8.10;99.90
51579;DHT22;47998;53.242;6.386;2023-04-03T17:16:24;7.80;99.90
51579;DHT22;47998;53.242;6.386;2023-04-03T17:18:52;7.50;99.90
51579;DHT22;47998;53.242;6.386;2023-04-03T17:21:19;7.50;99.90
51579;DHT22;47998;53.242;6.386;2023-04-03T17:23:49;7.30;99.90
51579;DHT22;47998;53.242;6.386;2023-04-03T17:26:16;7.10;99.90
51579;DHT22;47998;53.242;6.386;2023-04-03T17:28:42;6.80;99.90
51579;DHT22;47998;53.242;6.386;2023-04-03T17:31:08;6.60;99.90
51579;DHT22;47998;53.242;6.386;2023-04-03T17:33:34;6.70;1.00
51579;DHT22;47998;53.242;6.386;2023-04-03T17:36:01;6.80;1.00
51579;DHT22;47998;53.242;6.386;2023-04-03T17:38:30;6.90;1.00
51579;DHT22;47998;53.242;6.386;2023-04-03T17:41:01;6.90;1.00
51579;DHT22;47998;53.242;6.386;2023-04-03T17:43:27;6.70;1.00
51579;DHT22;47998;53.242;6.386;2023-04-03T17:45:53;6.50;1.00
51579;DHT22;47998;53.242;6.386;2023-04-03T17:48:19;6.40;1.00